sensor_id;sensor_type;location;lat;lon;timestamp;pressure;altitude;pressure_sealevel;temperature
67353;BMP180;54238;52.278;21.056;2022-09-12T00:01:54;99952.00;;;12.60
67353;BMP180;54238;52.278;21.056;2022-09-12T00:04:24;99951.40;;;12.60
67353;BMP180;54238;52.278;21.056;2022-09-12T00:06:57;99957.20;;;12.58
67353;BMP180;54238;52.278;21.056;2022-09-12T00:09:26;99956.40;;;12.60
67353;BMP180;54238;52.278;21.056;2022-09-12T00:11:58;99950.80;;;12.56
67353;BMP180;54238;52.278;21.056;2022-09-12T00:14:25;99953.20;;;12.60
67353;BMP180;54238;52.278;21.056;2022-09-12T00:16:52;99959.00;;;12.60
67353;BMP180;54238;52.278;21.056;2022-09-12T00:19:19;99956.40;;;12.60
67353;BMP180;54238;52.278;21.056;2022-09-12T00:21:51;99953.60;;;12.60
67353;BMP180;54238;52.278;21.056;2022-09-12T00:24:21;99954.20;;;12.60
67353;BMP180;54238;52.278;21.056;2022-09-12T00:26:48;99949.20;;;12.60
67353;BMP180;54238;52.278;21.056;2022-09-12T00:29:20;99959.20;;;12.60
67353;BMP180;54238;52.278;21.056;2022-09-12T00:31:50;99952.60;;;12.60
67353;BMP180;54238;52.278;21.056;2022-09-12T00:34:21;99949.00;;;12.50
67353;BMP180;54238;52.278;21.056;2022-09-12T00:36:50;99953.80;;;12.50
67353;BMP180;54238;52.278;21.056;2022-09-12T00:39:18;99954.00;;;12.42
67353;BMP180;54238;52.278;21.056;2022-09-12T00:41:48;99948.80;;;12.40
67353;BMP180;54238;52.278;21.056;2022-09-12T00:52:22;99953.80;;;12.40
67353;BMP180;54238;52.278;21.056;2022-09-12T00:55:14;99958.00;;;12.40
67353;BMP180;54238;52.278;21.056;2022-09-12T00:57:52;99964.80;;;12.40
67353;BMP180;54238;52.278;21.056;2022-09-12T01:00:28;99967.80;;;12.30
67353;BMP180;54238;52.278;21.056;2022-09-12T01:03:05;99965.00;;;12.30
67353;BMP180;54238;52.278;21.056;2022-09-12T01:08:28;99971.20;;;12.30
67353;BMP180;54238;52.278;21.056;2022-09-12T01:10:59;99969.00;;;12.20
67353;BMP180;54238;52.278;21.056;2022-09-12T01:13:29;99970.60;;;12.20
67353;BMP180;54238;52.278;21.056;2022-09-12T01:15:56;99969.40;;;12.20
67353;BMP180;54238;52.278;21.056;2022-09-12T01:27:20;99972.60;;;12.12
67353;BMP180;54238;52.278;21.056;2022-09-12T01:33:14;99976.60;;;12.20
67353;BMP180;54238;52.278;21.056;2022-09-12T01:38:59;99975.20;;;12.30
67353;BMP180;54238;52.278;21.056;2022-09-12T01:41:54;99981.60;;;12.30
67353;BMP180;54238;52.278;21.056;2022-09-12T01:45:02;99984.20;;;12.30
67353;BMP180;54238;52.278;21.056;2022-09-12T01:48:16;99983.00;;;12.20
67353;BMP180;54238;52.278;21.056;2022-09-12T01:53:46;99987.20;;;12.20
67353;BMP180;54238;52.278;21.056;2022-09-12T01:56:23;99990.40;;;12.20
67353;BMP180;54238;52.278;21.056;2022-09-12T01:59:05;99992.80;;;12.10
67353;BMP180;54238;52.278;21.056;2022-09-12T02:01:45;99993.40;;;12.10
67353;BMP180;54238;52.278;21.056;2022-09-12T02:04:26;99989.80;;;12.10
67353;BMP180;54238;52.278;21.056;2022-09-12T02:07:07;99986.20;;;12.10
67353;BMP180;54238;52.278;21.056;2022-09-12T02:09:45;99991.20;;;12.10
67353;BMP180;54238;52.278;21.056;2022-09-12T02:12:17;99983.20;;;12.10
67353;BMP180;54238;52.278;21.056;2022-09-12T02:14:58;99983.60;;;12.06
67353;BMP180;54238;52.278;21.056;2022-09-12T02:17:38;99982.00;;;12.10
67353;BMP180;54238;52.278;21.056;2022-09-12T02:20:37;99989.60;;;12.10
67353;BMP180;54238;52.278;21.056;2022-09-12T02:23:13;99990.40;;;12.10
67353;BMP180;54238;52.278;21.056;2022-09-12T02:25:49;99986.00;;;12.06
67353;BMP180;54238;52.278;21.056;2022-09-12T02:28:33;99984.80;;;12.00
67353;BMP180;54238;52.278;21.056;2022-09-12T02:36:48;99991.80;;;12.00
67353;BMP180;54238;52.278;21.056;2022-09-12T02:39:22;99989.00;;;11.96
67353;BMP180;54238;52.278;21.056;2022-09-12T02:41:54;99989.20;;;11.90
67353;BMP180;54238;52.278;21.056;2022-09-12T02:44:30;99991.40;;;11.90
67353;BMP180;54238;52.278;21.056;2022-09-12T02:47:16;99989.60;;;11.90
67353;BMP180;54238;52.278;21.056;2022-09-12T02:49:47;99993.00;;;11.90
67353;BMP180;54238;52.278;21.056;2022-09-12T02:52:14;99997.80;;;11.90
67353;BMP180;54238;52.278;21.056;2022-09-12T02:54:45;99998.20;;;11.90
67353;BMP180;54238;52.278;21.056;2022-09-12T02:57:24;100001.40;;;12.00
67353;BMP180;54238;52.278;21.056;2022-09-12T02:59:59;99998.60;;;12.00
67353;BMP180;54238;52.278;21.056;2022-09-12T03:05:40;99997.60;;;12.00
67353;BMP180;54238;52.278;21.056;2022-09-12T03:08:46;100000.40;;;12.00
67353;BMP180;54238;52.278;21.056;2022-09-12T03:11:53;99997.60;;;12.00
67353;BMP180;54238;52.278;21.056;2022-09-12T03:18:01;100005.60;;;12.06
67353;BMP180;54238;52.278;21.056;2022-09-12T03:23:15;100009.20;;;12.10
67353;BMP180;54238;52.278;21.056;2022-09-12T03:26:09;100019.20;;;12.10
67353;BMP180;54238;52.278;21.056;2022-09-12T03:28:43;100019.00;;;12.10
67353;BMP180;54238;52.278;21.056;2022-09-12T03:31:15;100018.40;;;12.10
67353;BMP180;54238;52.278;21.056;2022-09-12T03:33:45;100028.80;;;12.10
67353;BMP180;54238;52.278;21.056;2022-09-12T03:36:24;100028.40;;;12.10
67353;BMP180;54238;52.278;21.056;2022-09-12T03:38:57;100035.00;;;12.20
67353;BMP180;54238;52.278;21.056;2022-09-12T03:41:30;100034.60;;;12.20
67353;BMP180;54238;52.278;21.056;2022-09-12T03:44:02;100039.20;;;12.20
67353;BMP180;54238;52.278;21.056;2022-09-12T03:46:33;100037.40;;;12.20
67353;BMP180;54238;52.278;21.056;2022-09-12T03:49:03;100042.40;;;12.10
67353;BMP180;54238;52.278;21.056;2022-09-12T03:51:36;100046.80;;;12.10
67353;BMP180;54238;52.278;21.056;2022-09-12T03:54:05;100045.80;;;12.10
67353;BMP180;54238;52.278;21.056;2022-09-12T03:56:33;100043.80;;;12.10
67353;BMP180;54238;52.278;21.056;2022-09-12T03:59:05;100047.00;;;12.10
67353;BMP180;54238;52.278;21.056;2022-09-12T04:01:35;100052.60;;;12.10
67353;BMP180;54238;52.278;21.056;2022-09-12T04:04:10;100051.00;;;12.10
67353;BMP180;54238;52.278;21.056;2022-09-12T04:06:39;100047.40;;;12.08
67353;BMP180;54238;52.278;21.056;2022-09-12T04:09:12;100048.40;;;12.10
67353;BMP180;54238;52.278;21.056;2022-09-12T04:11:41;100045.20;;;12.00
67353;BMP180;54238;52.278;21.056;2022-09-12T04:14:11;100046.80;;;12.00
67353;BMP180;54238;52.278;21.056;2022-09-12T04:16:43;100056.00;;;12.00
67353;BMP180;54238;52.278;21.056;2022-09-12T04:19:11;100052.80;;;11.90
67353;BMP180;54238;52.278;21.056;2022-09-12T04:21:43;100060.00;;;11.80
67353;BMP180;54238;52.278;21.056;2022-09-12T04:24:12;100058.80;;;11.80
67353;BMP180;54238;52.278;21.056;2022-09-12T04:26:43;100062.40;;;11.80
67353;BMP180;54238;52.278;21.056;2022-09-12T04:29:13;100061.20;;;11.70
67353;BMP180;54238;52.278;21.056;2022-09-12T04:31:46;100064.00;;;11.70
67353;BMP180;54238;52.278;21.056;2022-09-12T04:34:16;100069.80;;;11.60
67353;BMP180;54238;52.278;21.056;2022-09-12T04:36:50;100065.20;;;11.58
67353;BMP180;54238;52.278;21.056;2022-09-12T04:39:21;100071.00;;;11.50
67353;BMP180;54238;52.278;21.056;2022-09-12T04:41:51;100074.80;;;11.50
67353;BMP180;54238;52.278;21.056;2022-09-12T04:44:21;100076.80;;;11.50
67353;BMP180;54238;52.278;21.056;2022-09-12T04:46:50;100080.40;;;11.44
67353;BMP180;54238;52.278;21.056;2022-09-12T04:49:23;100081.80;;;11.48
67353;BMP180;54238;52.278;21.056;2022-09-12T04:51:52;100089.20;;;11.46
67353;BMP180;54238;52.278;21.056;2022-09-12T04:54:21;100087.20;;;11.40
67353;BMP180;54238;52.278;21.056;2022-09-12T04:56:51;100087.20;;;11.42
67353;BMP180;54238;52.278;21.056;2022-09-12T04:59:21;100093.20;;;11.50
67353;BMP180;54238;52.278;21.056;2022-09-12T05:01:48;100094.00;;;11.50
67353;BMP180;54238;52.278;21.056;2022-09-12T05:04:15;100091.00;;;11.50
67353;BMP180;54238;52.278;21.056;2022-09-12T05:06:44;100094.40;;;11.50
67353;BMP180;54238;52.278;21.056;2022-09-12T05:09:13;100094.80;;;11.50
67353;BMP180;54238;52.278;21.056;2022-09-12T05:11:43;100092.60;;;11.50
67353;BMP180;54238;52.278;21.056;2022-09-12T05:14:13;100097.20;;;11.54
67353;BMP180;54238;52.278;21.056;2022-09-12T05:16:42;100093.80;;;11.50
67353;BMP180;54238;52.278;21.056;2022-09-12T05:19:11;100103.00;;;11.50
67353;BMP180;54238;52.278;21.056;2022-09-12T05:21:43;100098.60;;;11.50
67353;BMP180;54238;52.278;21.056;2022-09-12T05:24:12;100100.60;;;11.40
67353;BMP180;54238;52.278;21.056;2022-09-12T05:26:40;100104.80;;;11.40
67353;BMP180;54238;52.278;21.056;2022-09-12T05:29:11;100102.40;;;11.40
67353;BMP180;54238;52.278;21.056;2022-09-12T05:31:43;100099.00;;;11.40
67353;BMP180;54238;52.278;21.056;2022-09-12T05:34:13;100107.60;;;11.40
67353;BMP180;54238;52.278;21.056;2022-09-12T05:36:40;100109.40;;;11.40
67353;BMP180;54238;52.278;21.056;2022-09-12T05:39:12;100106.20;;;11.40
67353;BMP180;54238;52.278;21.056;2022-09-12T05:41:39;100106.80;;;11.40
67353;BMP180;54238;52.278;21.056;2022-09-12T05:44:16;100101.80;;;11.40
67353;BMP180;54238;52.278;21.056;2022-09-12T05:46:45;100114.60;;;11.42
67353;BMP180;54238;52.278;21.056;2022-09-12T05:49:16;100113.00;;;11.50
67353;BMP180;54238;52.278;21.056;2022-09-12T05:51:47;100106.60;;;11.50
67353;BMP180;54238;52.278;21.056;2022-09-12T05:54:17;100106.80;;;11.50
67353;BMP180;54238;52.278;21.056;2022-09-12T05:56:48;100110.20;;;11.50
67353;BMP180;54238;52.278;21.056;2022-09-12T05:59:20;100110.80;;;11.50
67353;BMP180;54238;52.278;21.056;2022-09-12T06:01:50;100111.60;;;11.50
67353;BMP180;54238;52.278;21.056;2022-09-12T06:04:24;100108.80;;;11.54
67353;BMP180;54238;52.278;21.056;2022-09-12T06:06:53;100107.60;;;11.60
67353;BMP180;54238;52.278;21.056;2022-09-12T06:09:23;100109.80;;;11.60
67353;BMP180;54238;52.278;21.056;2022-09-12T06:11:51;100110.80;;;11.60
67353;BMP180;54238;52.278;21.056;2022-09-12T06:14:18;100115.20;;;11.70
67353;BMP180;54238;52.278;21.056;2022-09-12T06:16:48;100113.40;;;11.70
67353;BMP180;54238;52.278;21.056;2022-09-12T06:19:20;100109.20;;;11.76
67353;BMP180;54238;52.278;21.056;2022-09-12T06:21:51;100112.20;;;11.80
67353;BMP180;54238;52.278;21.056;2022-09-12T06:24:25;100111.40;;;11.80
67353;BMP180;54238;52.278;21.056;2022-09-12T06:26:54;100114.40;;;11.74
67353;BMP180;54238;52.278;21.056;2022-09-12T06:29:24;100113.60;;;11.80
67353;BMP180;54238;52.278;21.056;2022-09-12T06:31:56;100113.20;;;11.80
67353;BMP180;54238;52.278;21.056;2022-09-12T06:34:26;100110.20;;;11.80
67353;BMP180;54238;52.278;21.056;2022-09-12T06:36:55;100115.40;;;11.80
67353;BMP180;54238;52.278;21.056;2022-09-12T06:39:23;100122.60;;;11.84
67353;BMP180;54238;52.278;21.056;2022-09-12T06:41:51;100121.60;;;11.88
67353;BMP180;54238;52.278;21.056;2022-09-12T06:44:21;100125.80;;;11.80
67353;BMP180;54238;52.278;21.056;2022-09-12T06:46:53;100122.00;;;11.88
67353;BMP180;54238;52.278;21.056;2022-09-12T06:49:26;100122.80;;;11.90
67353;BMP180;54238;52.278;21.056;2022-09-12T06:51:57;100130.40;;;12.00
67353;BMP180;54238;52.278;21.056;2022-09-12T06:54:24;100126.80;;;12.00
67353;BMP180;54238;52.278;21.056;2022-09-12T06:56:54;100127.80;;;12.00
67353;BMP180;54238;52.278;21.056;2022-09-12T06:59:23;100127.00;;;12.00
67353;BMP180;54238;52.278;21.056;2022-09-12T07:01:52;100131.80;;;12.06
67353;BMP180;54238;52.278;21.056;2022-09-12T07:04:21;100129.80;;;12.10
67353;BMP180;54238;52.278;21.056;2022-09-12T07:06:53;100129.80;;;12.20
67353;BMP180;54238;52.278;21.056;2022-09-12T07:09:20;100127.00;;;12.30
67353;BMP180;54238;52.278;21.056;2022-09-12T07:11:49;100138.60;;;12.32
67353;BMP180;54238;52.278;21.056;2022-09-12T07:14:21;100134.00;;;12.30
67353;BMP180;54238;52.278;21.056;2022-09-12T07:16:52;100142.20;;;12.30
67353;BMP180;54238;52.278;21.056;2022-09-12T07:19:22;100142.40;;;12.40
67353;BMP180;54238;52.278;21.056;2022-09-12T07:21:58;100142.80;;;12.48
67353;BMP180;54238;52.278;21.056;2022-09-12T07:24:29;100148.40;;;12.50
67353;BMP180;54238;52.278;21.056;2022-09-12T07:27:01;100154.80;;;12.60
67353;BMP180;54238;52.278;21.056;2022-09-12T07:29:30;100157.20;;;12.60
67353;BMP180;54238;52.278;21.056;2022-09-12T07:31:59;100159.80;;;12.60
67353;BMP180;54238;52.278;21.056;2022-09-12T07:34:30;100154.40;;;12.60
67353;BMP180;54238;52.278;21.056;2022-09-12T07:36:59;100161.60;;;12.70
67353;BMP180;54238;52.278;21.056;2022-09-12T07:39:27;100166.00;;;12.74
67353;BMP180;54238;52.278;21.056;2022-09-12T07:41:56;100168.80;;;12.90
67353;BMP180;54238;52.278;21.056;2022-09-12T07:44:30;100168.20;;;13.00
67353;BMP180;54238;52.278;21.056;2022-09-12T07:47:00;100175.60;;;13.10
67353;BMP180;54238;52.278;21.056;2022-09-12T07:49:29;100182.60;;;13.20
67353;BMP180;54238;52.278;21.056;2022-09-12T07:51:58;100176.40;;;13.20
67353;BMP180;54238;52.278;21.056;2022-09-12T07:54:25;100182.00;;;13.20
67353;BMP180;54238;52.278;21.056;2022-09-12T07:56:56;100185.20;;;13.28
67353;BMP180;54238;52.278;21.056;2022-09-12T07:59:24;100183.20;;;13.30
67353;BMP180;54238;52.278;21.056;2022-09-12T08:01:56;100194.60;;;13.30
67353;BMP180;54238;52.278;21.056;2022-09-12T08:04:25;100192.60;;;13.38
67353;BMP180;54238;52.278;21.056;2022-09-12T08:06:58;100193.60;;;13.40
67353;BMP180;54238;52.278;21.056;2022-09-12T08:09:27;100190.20;;;13.44
67353;BMP180;54238;52.278;21.056;2022-09-12T08:11:59;100197.60;;;13.60
67353;BMP180;54238;52.278;21.056;2022-09-12T08:14:27;100193.20;;;13.70
67353;BMP180;54238;52.278;21.056;2022-09-12T08:16:54;100190.00;;;13.72
67353;BMP180;54238;52.278;21.056;2022-09-12T08:19:26;100196.60;;;13.80
67353;BMP180;54238;52.278;21.056;2022-09-12T08:21:52;100196.40;;;13.90
67353;BMP180;54238;52.278;21.056;2022-09-12T08:24:22;100195.60;;;13.92
67353;BMP180;54238;52.278;21.056;2022-09-12T08:26:54;100195.80;;;13.98
67353;BMP180;54238;52.278;21.056;2022-09-12T08:29:23;100193.40;;;14.00
67353;BMP180;54238;52.278;21.056;2022-09-12T08:31:54;100195.20;;;14.00
67353;BMP180;54238;52.278;21.056;2022-09-12T08:34:26;100199.20;;;13.90
67353;BMP180;54238;52.278;21.056;2022-09-12T08:36:58;100198.00;;;13.90
67353;BMP180;54238;52.278;21.056;2022-09-12T08:39:31;100197.60;;;13.80
67353;BMP180;54238;52.278;21.056;2022-09-12T08:42:05;100202.40;;;13.78
67353;BMP180;54238;52.278;21.056;2022-09-12T08:45:00;100192.80;;;13.80
67353;BMP180;54238;52.278;21.056;2022-09-12T08:47:41;100198.60;;;13.80
67353;BMP180;54238;52.278;21.056;2022-09-12T08:50:18;100195.60;;;13.80
67353;BMP180;54238;52.278;21.056;2022-09-12T08:53:10;100198.20;;;13.80
67353;BMP180;54238;52.278;21.056;2022-09-12T08:58:20;100195.40;;;14.00
67353;BMP180;54238;52.278;21.056;2022-09-12T09:16:37;100207.20;;;14.30
67353;BMP180;54238;52.278;21.056;2022-09-12T09:19:29;100208.00;;;14.30
67353;BMP180;54238;52.278;21.056;2022-09-12T09:22:13;100206.20;;;14.30
67353;BMP180;54238;52.278;21.056;2022-09-12T09:24:58;100206.60;;;14.40
67353;BMP180;54238;52.278;21.056;2022-09-12T09:27:30;100212.80;;;14.60
67353;BMP180;54238;52.278;21.056;2022-09-12T09:30:16;100214.60;;;14.60
67353;BMP180;54238;52.278;21.056;2022-09-12T09:32:50;100216.40;;;14.70
67353;BMP180;54238;52.278;21.056;2022-09-12T09:35:40;100206.00;;;14.70
67353;BMP180;54238;52.278;21.056;2022-09-12T09:41:21;100215.80;;;14.90
67353;BMP180;54238;52.278;21.056;2022-09-12T09:43:53;100212.00;;;14.94
67353;BMP180;54238;52.278;21.056;2022-09-12T09:46:20;100214.40;;;15.00
67353;BMP180;54238;52.278;21.056;2022-09-12T09:48:52;100218.60;;;14.90
67353;BMP180;54238;52.278;21.056;2022-09-12T09:51:28;100229.00;;;14.90
67353;BMP180;54238;52.278;21.056;2022-09-12T09:54:24;100228.40;;;14.80
67353;BMP180;54238;52.278;21.056;2022-09-12T09:56:54;100232.00;;;14.72
67353;BMP180;54238;52.278;21.056;2022-09-12T09:59:30;100233.00;;;14.60
67353;BMP180;54238;52.278;21.056;2022-09-12T10:04:54;100233.00;;;14.50
67353;BMP180;54238;52.278;21.056;2022-09-12T10:07:27;100234.00;;;14.40
67353;BMP180;54238;52.278;21.056;2022-09-12T10:10:12;100234.80;;;14.30
67353;BMP180;54238;52.278;21.056;2022-09-12T10:12:48;100238.60;;;14.30
67353;BMP180;54238;52.278;21.056;2022-09-12T10:15:25;100244.60;;;14.24
67353;BMP180;54238;52.278;21.056;2022-09-12T10:17:57;100244.40;;;14.24
67353;BMP180;54238;52.278;21.056;2022-09-12T10:20:40;100254.60;;;14.34
67353;BMP180;54238;52.278;21.056;2022-09-12T10:23:30;100255.00;;;14.50
67353;BMP180;54238;52.278;21.056;2022-09-12T10:26:09;100255.20;;;14.60
67353;BMP180;54238;52.278;21.056;2022-09-12T10:28:42;100260.40;;;14.62
67353;BMP180;54238;52.278;21.056;2022-09-12T10:31:22;100256.80;;;14.60
67353;BMP180;54238;52.278;21.056;2022-09-12T10:34:02;100260.80;;;14.70
67353;BMP180;54238;52.278;21.056;2022-09-12T10:36:38;100259.00;;;14.80
67353;BMP180;54238;52.278;21.056;2022-09-12T10:39:20;100260.60;;;14.80
67353;BMP180;54238;52.278;21.056;2022-09-12T10:41:49;100266.80;;;14.88
67353;BMP180;54238;52.278;21.056;2022-09-12T10:44:29;100268.20;;;14.90
67353;BMP180;54238;52.278;21.056;2022-09-12T10:46:59;100270.40;;;14.90
67353;BMP180;54238;52.278;21.056;2022-09-12T10:49:31;100269.60;;;14.90
67353;BMP180;54238;52.278;21.056;2022-09-12T10:52:25;100276.20;;;14.90
67353;BMP180;54238;52.278;21.056;2022-09-12T10:55:01;100270.60;;;14.80
67353;BMP180;54238;52.278;21.056;2022-09-12T11:00:45;100275.80;;;14.80
67353;BMP180;54238;52.278;21.056;2022-09-12T11:03:23;100275.20;;;14.70
67353;BMP180;54238;52.278;21.056;2022-09-12T11:05:59;100277.40;;;14.70
67353;BMP180;54238;52.278;21.056;2022-09-12T11:09:12;100280.00;;;14.72
67353;BMP180;54238;52.278;21.056;2022-09-12T11:12:19;100282.60;;;14.70
67353;BMP180;54238;52.278;21.056;2022-09-12T11:15:25;100279.80;;;14.70
67353;BMP180;54238;52.278;21.056;2022-09-12T11:32:55;100285.40;;;14.60
67353;BMP180;54238;52.278;21.056;2022-09-12T11:35:34;100284.80;;;14.60
67353;BMP180;54238;52.278;21.056;2022-09-12T11:40:55;100286.20;;;14.70
67353;BMP180;54238;52.278;21.056;2022-09-12T11:46:39;100285.80;;;14.80
67353;BMP180;54238;52.278;21.056;2022-09-12T11:52:22;100289.40;;;14.90
67353;BMP180;54238;52.278;21.056;2022-09-12T11:55:16;100290.20;;;14.90
67353;BMP180;54238;52.278;21.056;2022-09-12T11:57:56;100289.40;;;14.90
67353;BMP180;54238;52.278;21.056;2022-09-12T12:00:48;100290.20;;;15.00
67353;BMP180;54238;52.278;21.056;2022-09-12T12:06:06;100292.80;;;15.00
67353;BMP180;54238;52.278;21.056;2022-09-12T12:08:41;100292.60;;;15.00
67353;BMP180;54238;52.278;21.056;2022-09-12T12:11:14;100293.60;;;15.00
67353;BMP180;54238;52.278;21.056;2022-09-12T12:13:50;100295.20;;;15.10
67353;BMP180;54238;52.278;21.056;2022-09-12T12:16:39;100296.60;;;15.20
67353;BMP180;54238;52.278;21.056;2022-09-12T12:19:31;100290.80;;;15.30
67353;BMP180;54238;52.278;21.056;2022-09-12T12:22:22;100291.00;;;15.40
67353;BMP180;54238;52.278;21.056;2022-09-12T12:27:59;100299.00;;;15.50
67353;BMP180;54238;52.278;21.056;2022-09-12T12:38:34;100297.00;;;15.90
67353;BMP180;54238;52.278;21.056;2022-09-12T12:43:48;100299.80;;;16.10
67353;BMP180;54238;52.278;21.056;2022-09-12T12:46:21;100299.20;;;16.10
67353;BMP180;54238;52.278;21.056;2022-09-12T12:49:08;100303.60;;;16.20
67353;BMP180;54238;52.278;21.056;2022-09-12T12:51:58;100304.00;;;16.20
67353;BMP180;54238;52.278;21.056;2022-09-12T12:54:56;100304.60;;;16.18
67353;BMP180;54238;52.278;21.056;2022-09-12T12:57:55;100308.40;;;16.18
67353;BMP180;54238;52.278;21.056;2022-09-12T13:00:38;100305.40;;;16.10
67353;BMP180;54238;52.278;21.056;2022-09-12T13:03:28;100310.60;;;16.10
67353;BMP180;54238;52.278;21.056;2022-09-12T13:06:18;100309.80;;;16.08
67353;BMP180;54238;52.278;21.056;2022-09-12T13:09:01;100313.40;;;16.00
67353;BMP180;54238;52.278;21.056;2022-09-12T13:11:35;100313.60;;;16.00
67353;BMP180;54238;52.278;21.056;2022-09-12T13:17:20;100313.00;;;16.10
67353;BMP180;54238;52.278;21.056;2022-09-12T13:20:00;100315.80;;;16.10
67353;BMP180;54238;52.278;21.056;2022-09-12T13:22:44;100317.40;;;16.20
67353;BMP180;54238;52.278;21.056;2022-09-12T13:25:51;100313.40;;;16.20
67353;BMP180;54238;52.278;21.056;2022-09-12T13:28:18;100314.60;;;16.20
67353;BMP180;54238;52.278;21.056;2022-09-12T13:31:28;100319.20;;;16.20
67353;BMP180;54238;52.278;21.056;2022-09-12T13:33:57;100317.80;;;16.20
67353;BMP180;54238;52.278;21.056;2022-09-12T13:42:00;100314.40;;;16.30
67353;BMP180;54238;52.278;21.056;2022-09-12T13:45:12;100313.20;;;16.40
67353;BMP180;54238;52.278;21.056;2022-09-12T13:53:25;100311.20;;;16.50
67353;BMP180;54238;52.278;21.056;2022-09-12T13:56:00;100316.40;;;16.60
67353;BMP180;54238;52.278;21.056;2022-09-12T13:58:30;100309.00;;;16.80
67353;BMP180;54238;52.278;21.056;2022-09-12T14:01:14;100312.00;;;16.86
67353;BMP180;54238;52.278;21.056;2022-09-12T14:06:49;100308.60;;;17.00
67353;BMP180;54238;52.278;21.056;2022-09-12T14:09:33;100311.20;;;17.10
67353;BMP180;54238;52.278;21.056;2022-09-12T14:12:16;100310.80;;;17.20
67353;BMP180;54238;52.278;21.056;2022-09-12T14:14:52;100316.20;;;17.30
67353;BMP180;54238;52.278;21.056;2022-09-12T14:17:37;100316.20;;;17.30
67353;BMP180;54238;52.278;21.056;2022-09-12T14:20:13;100316.60;;;17.30
67353;BMP180;54238;52.278;21.056;2022-09-12T14:22:47;100319.40;;;17.34
67353;BMP180;54238;52.278;21.056;2022-09-12T14:25:29;100317.80;;;17.30
67353;BMP180;54238;52.278;21.056;2022-09-12T14:27:58;100315.00;;;17.20
67353;BMP180;54238;52.278;21.056;2022-09-12T14:35:45;100313.00;;;17.22
67353;BMP180;54238;52.278;21.056;2022-09-12T14:41:01;100318.40;;;17.20
67353;BMP180;54238;52.278;21.056;2022-09-12T14:43:33;100320.20;;;17.20
67353;BMP180;54238;52.278;21.056;2022-09-12T14:46:40;100315.80;;;17.10
67353;BMP180;54238;52.278;21.056;2022-09-12T14:49:15;100318.20;;;17.10
67353;BMP180;54238;52.278;21.056;2022-09-12T14:59:29;100315.60;;;16.80
67353;BMP180;54238;52.278;21.056;2022-09-12T15:05:13;100321.40;;;16.78
67353;BMP180;54238;52.278;21.056;2022-09-12T15:08:00;100324.00;;;16.70
67353;BMP180;54238;52.278;21.056;2022-09-12T15:10:38;100324.20;;;16.60
67353;BMP180;54238;52.278;21.056;2022-09-12T15:15:42;100327.40;;;16.50
67353;BMP180;54238;52.278;21.056;2022-09-12T15:18:10;100327.60;;;16.50
67353;BMP180;54238;52.278;21.056;2022-09-12T15:20:40;100331.40;;;16.42
67353;BMP180;54238;52.278;21.056;2022-09-12T15:23:31;100330.40;;;16.40
67353;BMP180;54238;52.278;21.056;2022-09-12T15:26:03;100330.20;;;16.36
67353;BMP180;54238;52.278;21.056;2022-09-12T15:28:33;100333.60;;;16.30
67353;BMP180;54238;52.278;21.056;2022-09-12T15:31:26;100329.40;;;16.20
67353;BMP180;54238;52.278;21.056;2022-09-12T15:34:12;100329.20;;;16.20
67353;BMP180;54238;52.278;21.056;2022-09-12T15:36:44;100335.40;;;16.10
67353;BMP180;54238;52.278;21.056;2022-09-12T15:39:13;100342.20;;;16.10
67353;BMP180;54238;52.278;21.056;2022-09-12T15:41:40;100344.00;;;16.00
67353;BMP180;54238;52.278;21.056;2022-09-12T15:44:13;100343.60;;;15.90
67353;BMP180;54238;52.278;21.056;2022-09-12T15:46:40;100342.00;;;15.90
67353;BMP180;54238;52.278;21.056;2022-09-12T15:49:12;100344.40;;;15.86
67353;BMP180;54238;52.278;21.056;2022-09-12T15:51:42;100350.60;;;15.80
67353;BMP180;54238;52.278;21.056;2022-09-12T15:54:13;100351.40;;;15.80
67353;BMP180;54238;52.278;21.056;2022-09-12T15:56:40;100348.80;;;15.76
67353;BMP180;54238;52.278;21.056;2022-09-12T15:59:10;100350.00;;;15.70
67353;BMP180;54238;52.278;21.056;2022-09-12T16:01:45;100351.00;;;15.70
67353;BMP180;54238;52.278;21.056;2022-09-12T16:04:21;100348.60;;;15.70
67353;BMP180;54238;52.278;21.056;2022-09-12T16:06:50;100352.00;;;15.70
67353;BMP180;54238;52.278;21.056;2022-09-12T16:09:21;100347.60;;;15.70
67353;BMP180;54238;52.278;21.056;2022-09-12T16:11:49;100346.40;;;15.70
67353;BMP180;54238;52.278;21.056;2022-09-12T16:14:18;100346.80;;;15.70
67353;BMP180;54238;52.278;21.056;2022-09-12T16:16:53;100343.60;;;15.70
67353;BMP180;54238;52.278;21.056;2022-09-12T16:19:27;100345.20;;;15.60
67353;BMP180;54238;52.278;21.056;2022-09-12T16:21:58;100346.60;;;15.60
67353;BMP180;54238;52.278;21.056;2022-09-12T16:24:30;100348.20;;;15.52
67353;BMP180;54238;52.278;21.056;2022-09-12T16:26:57;100351.40;;;15.50
67353;BMP180;54238;52.278;21.056;2022-09-12T16:29:27;100349.80;;;15.50
67353;BMP180;54238;52.278;21.056;2022-09-12T16:31:56;100348.00;;;15.56
67353;BMP180;54238;52.278;21.056;2022-09-12T16:34:23;100352.20;;;15.50
67353;BMP180;54238;52.278;21.056;2022-09-12T16:36:52;100352.80;;;15.50
67353;BMP180;54238;52.278;21.056;2022-09-12T16:39:21;100349.60;;;15.50
67353;BMP180;54238;52.278;21.056;2022-09-12T16:41:51;100349.20;;;15.50
67353;BMP180;54238;52.278;21.056;2022-09-12T16:44:17;100344.80;;;15.48
67353;BMP180;54238;52.278;21.056;2022-09-12T16:46:47;100347.80;;;15.40
67353;BMP180;54238;52.278;21.056;2022-09-12T16:49:16;100348.80;;;15.38
67353;BMP180;54238;52.278;21.056;2022-09-12T16:51:46;100348.40;;;15.30
67353;BMP180;54238;52.278;21.056;2022-09-12T16:54:18;100345.00;;;15.30
67353;BMP180;54238;52.278;21.056;2022-09-12T16:56:47;100346.20;;;15.20
67353;BMP180;54238;52.278;21.056;2022-09-12T16:59:15;100345.40;;;15.20
67353;BMP180;54238;52.278;21.056;2022-09-12T17:01:42;100348.00;;;15.20